Emma Maersk — OYGR2 — position and weather

sailwx.info

Track history (hours):
 
Tides and Currents Weather Stations Pressure Air Temp Water Temp Dewpoint Dewpoint Depression Visibility Wind Speed Wind Dir Waves Ship Positions

Emma Maersk

Last reported at 2017-Dec-16 12:00 UTC. Time now 2017-Dec-16 16:56 UTC.
Position N 32°30' E 029°00'.

Length 399 m; draft 16 m.

Type: Ship (hazmat cat D). MMSI: 220417000.

Wind from 220 at 18 knots

Barometer 1020.2 mb
Air temperature 19.0 ° C
Visibility: greater than 10.8 NM
Dewpoint 16.7 ° C
Water temperature 18.0 ° C

Date/timePositionNaut miles runAvg speedWind from/ knotsBaromVisibWave heightAir tempDewpointWater temp
2017-Dec-16 12:00N 32°30' E 029°00'25321.1 220 / 181020.210.8 19.016.718.0
2017-Dec-16 00:00N 33°48' E 024°12'26121.8 230 / 251020.010.8 16.014.417.0
2017-Dec-15 12:00N 35°12' E 019°12'23421.3 210 / 191017.5 5.4 19.017.518.0
2017-Dec-15 01:00N 36°26' E 014°39'1121.8
2017-Dec-15 00:30N 36°30' E 014°26'26521.2
2017-Dec-14 12:00N 37°18' E 009°00'26321.9 260 / 181021.610.8 18.014.819.0
2017-Dec-14 00:00N 37°12' E 003°30'2821.8 210 / 221024.910.8 16.014.417.0
2017-Dec-13 22:43N 37°08' E 002°56'522.2
2017-Dec-13 22:30N 37°07' E 002°50'1122.5
2017-Dec-13 22:01N 37°06' E 002°36'1122.5
2017-Dec-13 21:30N 37°05' E 002°22'1122.5
2017-Dec-13 21:00N 37°03' E 002°08'1122.7
2017-Dec-13 20:30N 37°01' E 001°54'1122.4
2017-Dec-13 20:00N 36°58' E 001°40'1122.2
2017-Dec-13 19:31N 36°56' E 001°27'1122.4
2017-Dec-13 19:00N 36°53' E 001°13'31121.8
2017-Dec-13 04:44N 36°01' W 005°07'521.0
2017-Dec-13 04:30N 35°60' W 005°13'919.0
2017-Dec-13 04:00N 35°57' W 005°25'510.1
2017-Dec-13 03:28N 35°54' W 005°30'0 0.0
2017-Dec-11 23:46N 35°53' W 005°30'0 0.0
2017-Dec-11 23:13N 35°53' W 005°30'0 0.0
2017-Dec-11 22:58N 35°53' W 005°30'0 0.0
2017-Dec-11 22:28N 35°53' W 005°30'0 0.1
2017-Dec-11 22:00N 35°53' W 005°30'1 1.1
2017-Dec-11 21:31N 35°54' W 005°30'2 3.8
2017-Dec-11 21:01N 35°55' W 005°32'510.4
2017-Dec-11 20:30N 35°54' W 005°38'714.6
2017-Dec-11 20:01N 35°53' W 005°47'918.8
2017-Dec-11 19:31N 35°53' W 005°58'1122.2
2017-Dec-11 19:01N 35°54' W 006°12'1122.0
2017-Dec-11 18:30N 35°56' W 006°25'1122.0
2017-Dec-11 18:00N 35°59' W 006°39'18315.0
2017-Dec-11 05:50N 37°41' W 009°47'719.7
2017-Dec-11 05:30N 37°48' W 009°49'1019.5
2017-Dec-11 05:01N 37°57' W 009°53'1019.9
2017-Dec-11 04:31N 38°07' W 009°56'1019.9
2017-Dec-11 03:59N 38°17' W 009°59'1020.0
2017-Dec-11 03:30N 38°26' W 010°02'1019.6
2017-Dec-11 03:00N 38°36' W 010°04'1019.1
2017-Dec-11 02:30N 38°45' W 010°06'918.8
2017-Dec-11 02:00N 38°55' W 010°06'918.7
2017-Dec-11 01:31N 39°04' W 010°06'919.0
2017-Dec-11 01:01N 39°13' W 010°07'1019.0
2017-Dec-11 00:30N 39°23' W 010°07'59917.1
2017-Dec-09 13:31N 48°52' W 005°49'121.7
2017-Dec-09 13:30N 48°53' W 005°48'2718.0
2017-Dec-09 12:00N 49°06' W 005°12'1518.1 190 / 121017.1 5.4 12.010.213.0
2017-Dec-09 11:08N 49°16' W 004°54'4617.7
2017-Dec-09 08:32N 49°38' W 003°51'117.8
2017-Dec-09 08:29N 49°38' W 003°50'918.0
2017-Dec-09 08:00N 49°43' W 003°39'918.4
2017-Dec-09 07:31N 49°48' W 003°27'1019.0
2017-Dec-09 07:00N 49°53' W 003°15'1019.3
2017-Dec-09 06:31N 49°57' W 003°01'1020.0
2017-Dec-09 06:00N 50°00' W 002°46'1020.4
2017-Dec-09 05:30N 50°02' W 002°31'5519.3
2017-Dec-09 02:39N 49°49' W 001°07'217.3
2017-Dec-09 02:30N 49°48' W 001°03'816.9
2017-Dec-09 02:00N 49°45' W 000°51'816.4
2017-Dec-09 01:30N 49°42' W 000°40'815.6
2017-Dec-09 01:00N 49°39' W 000°28'714.8
2017-Dec-09 00:30N 49°35' W 000°19'714.1
2017-Dec-09 00:00N 49°32' W 000°09'510.0
2017-Dec-08 23:30N 49°31' W 000°02'611.6
2017-Dec-08 23:00N 49°28' E 000°06'2 4.1
2017-Dec-08 22:30N 49°28' E 000°09'0 0.0
2017-Dec-08 21:58N 49°28' E 000°09'0 0.0
2017-Dec-08 21:28N 49°28' E 000°09'0 0.0
2017-Dec-08 20:58N 49°28' E 000°09'0 0.0
2017-Dec-08 20:28N 49°28' E 000°09'0 0.0
2017-Dec-08 19:58N 49°28' E 000°09'0 0.0
2017-Dec-08 19:28N 49°28' E 000°09'0 0.0
2017-Dec-08 18:58N 49°28' E 000°09'0 0.0
2017-Dec-08 18:28N 49°28' E 000°09'0 0.0
2017-Dec-08 17:58N 49°28' E 000°09'0 0.0
2017-Dec-08 17:28N 49°28' E 000°09'0 0.0
2017-Dec-08 16:58N 49°28' E 000°09'0 0.0
2017-Dec-08 16:28N 49°28' E 000°09'0 0.0
2017-Dec-08 15:58N 49°28' E 000°09'0 0.0
2017-Dec-08 15:28N 49°28' E 000°09'0 0.0
2017-Dec-08 14:58N 49°28' E 000°09'0 0.0
2017-Dec-08 14:28N 49°28' E 000°09'0 0.0
2017-Dec-08 13:58N 49°28' E 000°09'0 0.0
2017-Dec-08 13:28N 49°28' E 000°09'0 0.0
2017-Dec-08 12:58N 49°28' E 000°09'0 0.0
2017-Dec-08 12:28N 49°28' E 000°09'0 0.0
2017-Dec-08 11:58N 49°28' E 000°09'0 0.0
2017-Dec-08 11:28N 49°28' E 000°09'0 0.0
2017-Dec-08 10:58N 49°28' E 000°09'0 0.0
2017-Dec-08 10:28N 49°28' E 000°09'0 0.0
2017-Dec-08 09:58N 49°28' E 000°09'0 0.0
2017-Dec-08 09:28N 49°28' E 000°09'0 0.0
2017-Dec-08 08:58N 49°28' E 000°09'0 0.0
2017-Dec-08 08:28N 49°28' E 000°09'0 0.0
2017-Dec-08 07:58N 49°28' E 000°09'0 0.0
2017-Dec-08 07:28N 49°28' E 000°09'0 0.0
2017-Dec-08 06:58N 49°28' E 000°09'0 0.0
2017-Dec-08 06:28N 49°28' E 000°09'0 0.0
2017-Dec-08 05:58N 49°28' E 000°09'0 0.0
2017-Dec-08 05:28N 49°28' E 000°09'0 0.0
2017-Dec-08 04:58N 49°28' E 000°09'0 0.0
2017-Dec-08 04:28N 49°28' E 000°09'0 0.0
2017-Dec-08 03:58N 49°28' E 000°09'0 0.0
2017-Dec-08 03:28N 49°28' E 000°09'0 0.0
2017-Dec-08 02:58N 49°28' E 000°09'0 0.0
2017-Dec-08 02:28N 49°28' E 000°09'0 0.0
2017-Dec-08 01:58N 49°28' E 000°09'0 0.0
2017-Dec-08 01:28N 49°28' E 000°09'0 0.0
2017-Dec-08 00:58N 49°28' E 000°09'0 0.0
2017-Dec-08 00:28N 49°28' E 000°09'0 0.0
2017-Dec-07 23:58N 49°28' E 000°09'0 0.0
2017-Dec-07 23:28N 49°28' E 000°09'0 0.0
2017-Dec-07 22:58N 49°28' E 000°09'0 0.0
2017-Dec-07 22:28N 49°28' E 000°09'0 0.0
2017-Dec-07 21:58N 49°28' E 000°09'0 0.0
2017-Dec-07 21:28N 49°28' E 000°09'0 0.0
2017-Dec-07 20:58N 49°28' E 000°09'0 0.0
2017-Dec-07 20:28N 49°28' E 000°09'0 0.0
2017-Dec-07 19:58N 49°28' E 000°09'0 0.0
2017-Dec-07 19:28N 49°28' E 000°09'0 0.0
2017-Dec-07 18:58N 49°28' E 000°09'0 0.0
2017-Dec-07 18:28N 49°28' E 000°09'0 0.0
2017-Dec-07 17:58N 49°28' E 000°09'0 0.0
2017-Dec-07 17:28N 49°28' E 000°09'0 0.0
2017-Dec-07 16:58N 49°28' E 000°09'0 0.0
2017-Dec-07 16:28N 49°28' E 000°09'0 0.0
2017-Dec-07 15:58N 49°28' E 000°09'0 0.0
2017-Dec-07 15:28N 49°28' E 000°09'0 0.0
2017-Dec-07 14:58N 49°28' E 000°09'0 0.0
2017-Dec-07 14:28N 49°28' E 000°09'0 0.0
2017-Dec-07 13:58N 49°28' E 000°09'0 0.0
2017-Dec-07 13:30N 49°28' E 000°09'0 0.9
2017-Dec-07 13:00N 49°27' E 000°09'5 9.3
2017-Dec-07 12:30N 49°30' E 000°02'815.4
2017-Dec-07 12:01N 49°32' W 000°09'510.3
2017-Dec-07 11:30N 49°37' W 000°11'5 9.9
2017-Dec-07 11:00N 49°42' W 000°09'5 9.8
2017-Dec-07 10:30N 49°47' W 000°08'5 9.9
2017-Dec-07 10:00N 49°52' W 000°08'5 9.4
2017-Dec-07 09:30N 49°56' W 000°07'510.7
2017-Dec-07 09:01N 50°02' W 000°06'611.8
2017-Dec-07 08:30N 50°07' W 000°04'612.0
2017-Dec-07 08:00N 50°13' W 000°05'611.7
2017-Dec-07 07:30N 50°19' W 000°06'611.8
2017-Dec-07 07:00N 50°25' W 000°07'5 9.5
2017-Dec-07 06:30N 50°28' W 000°01'611.4
2017-Dec-07 06:01N 50°30' E 000°07'611.6
2017-Dec-07 05:31N 50°31' E 000°16'611.4
2017-Dec-07 05:00N 50°33' E 000°25'611.5
2017-Dec-07 04:30N 50°34' E 000°34'611.3
2017-Dec-07 04:00N 50°37' E 000°41'611.6
2017-Dec-07 03:30N 50°40' E 000°49'510.7
2017-Dec-07 03:00N 50°43' E 000°56'510.2
2017-Dec-07 02:30N 50°46' E 001°02'5 9.7
2017-Dec-07 02:00N 50°49' E 001°08'5 9.4
2017-Dec-07 01:30N 50°52' E 001°14'4 7.8
2017-Dec-07 01:00N 50°55' E 001°19'4 7.9
2017-Dec-07 00:30N 50°58' E 001°23'4 8.9
2017-Dec-07 00:00N 51°01' E 001°28'510.2
2017-Dec-06 23:30N 51°05' E 001°33'510.1
2017-Dec-06 23:00N 51°09' E 001°38'510.2
2017-Dec-06 22:30N 51°13' E 001°44'510.9
2017-Dec-06 22:00N 51°17' E 001°49'611.9
2017-Dec-06 21:30N 51°22' E 001°54'510.6
2017-Dec-06 21:00N 51°25' E 002°01'  
Track history (hours):
 
Tides and Currents Weather Stations Pressure Air Temp Water Temp Dewpoint Dewpoint Depression Visibility Wind Speed Wind Dir Waves Ship Positions

Emma Maersk

Last reported at 2017-Dec-16 12:00 UTC. Time now 2017-Dec-16 16:56 UTC.
Position N 32°30' E 029°00'.

Length 399 m; draft 16 m.

Type: Ship (hazmat cat D). MMSI: 220417000.

Wind from 220 at 18 knots

Barometer 1020.2 mb
Air temperature 19.0 ° C
Visibility: greater than 10.8 NM
Dewpoint 16.7 ° C
Water temperature 18.0 ° C

Date/timePositionNaut miles runAvg speedWind from/ knotsBaromVisibWave heightAir tempDewpointWater temp
2017-Dec-16 12:00N 32°30' E 029°00'25321.1 220 / 181020.210.8 19.016.718.0
2017-Dec-16 00:00N 33°48' E 024°12'26121.8 230 / 251020.010.8 16.014.417.0
2017-Dec-15 12:00N 35°12' E 019°12'23421.3 210 / 191017.5 5.4 19.017.518.0
2017-Dec-15 01:00N 36°26' E 014°39'1121.8
2017-Dec-15 00:30N 36°30' E 014°26'26521.2
2017-Dec-14 12:00N 37°18' E 009°00'26321.9 260 / 181021.610.8 18.014.819.0
2017-Dec-14 00:00N 37°12' E 003°30'2821.8 210 / 221024.910.8 16.014.417.0
2017-Dec-13 22:43N 37°08' E 002°56'522.2
2017-Dec-13 22:30N 37°07' E 002°50'1122.5
2017-Dec-13 22:01N 37°06' E 002°36'1122.5
2017-Dec-13 21:30N 37°05' E 002°22'1122.5
2017-Dec-13 21:00N 37°03' E 002°08'1122.7
2017-Dec-13 20:30N 37°01' E 001°54'1122.4
2017-Dec-13 20:00N 36°58' E 001°40'1122.2
2017-Dec-13 19:31N 36°56' E 001°27'1122.4
2017-Dec-13 19:00N 36°53' E 001°13'31121.8
2017-Dec-13 04:44N 36°01' W 005°07'521.0
2017-Dec-13 04:30N 35°60' W 005°13'919.0
2017-Dec-13 04:00N 35°57' W 005°25'510.1
2017-Dec-13 03:28N 35°54' W 005°30'0 0.0
2017-Dec-11 23:46N 35°53' W 005°30'0 0.0
2017-Dec-11 23:13N 35°53' W 005°30'0 0.0
2017-Dec-11 22:58N 35°53' W 005°30'0 0.0
2017-Dec-11 22:28N 35°53' W 005°30'0 0.1
2017-Dec-11 22:00N 35°53' W 005°30'1 1.1
2017-Dec-11 21:31N 35°54' W 005°30'2 3.8
2017-Dec-11 21:01N 35°55' W 005°32'510.4
2017-Dec-11 20:30N 35°54' W 005°38'714.6
2017-Dec-11 20:01N 35°53' W 005°47'918.8
2017-Dec-11 19:31N 35°53' W 005°58'1122.2
2017-Dec-11 19:01N 35°54' W 006°12'1122.0
2017-Dec-11 18:30N 35°56' W 006°25'1122.0
2017-Dec-11 18:00N 35°59' W 006°39'18315.0
2017-Dec-11 05:50N 37°41' W 009°47'719.7
2017-Dec-11 05:30N 37°48' W 009°49'1019.5
2017-Dec-11 05:01N 37°57' W 009°53'1019.9
2017-Dec-11 04:31N 38°07' W 009°56'1019.9
2017-Dec-11 03:59N 38°17' W 009°59'1020.0
2017-Dec-11 03:30N 38°26' W 010°02'1019.6
2017-Dec-11 03:00N 38°36' W 010°04'1019.1
2017-Dec-11 02:30N 38°45' W 010°06'918.8
2017-Dec-11 02:00N 38°55' W 010°06'918.7
2017-Dec-11 01:31N 39°04' W 010°06'919.0
2017-Dec-11 01:01N 39°13' W 010°07'1019.0
2017-Dec-11 00:30N 39°23' W 010°07'59917.1
2017-Dec-09 13:31N 48°52' W 005°49'121.7
2017-Dec-09 13:30N 48°53' W 005°48'2718.0
2017-Dec-09 12:00N 49°06' W 005°12'1518.1 190 / 121017.1 5.4 12.010.213.0
2017-Dec-09 11:08N 49°16' W 004°54'4617.7
2017-Dec-09 08:32N 49°38' W 003°51'117.8
2017-Dec-09 08:29N 49°38' W 003°50'918.0
2017-Dec-09 08:00N 49°43' W 003°39'918.4
2017-Dec-09 07:31N 49°48' W 003°27'1019.0
2017-Dec-09 07:00N 49°53' W 003°15'1019.3
2017-Dec-09 06:31N 49°57' W 003°01'1020.0
2017-Dec-09 06:00N 50°00' W 002°46'1020.4
2017-Dec-09 05:30N 50°02' W 002°31'5519.3
2017-Dec-09 02:39N 49°49' W 001°07'217.3
2017-Dec-09 02:30N 49°48' W 001°03'816.9
2017-Dec-09 02:00N 49°45' W 000°51'816.4
2017-Dec-09 01:30N 49°42' W 000°40'815.6
2017-Dec-09 01:00N 49°39' W 000°28'714.8
2017-Dec-09 00:30N 49°35' W 000°19'714.1
2017-Dec-09 00:00N 49°32' W 000°09'510.0
2017-Dec-08 23:30N 49°31' W 000°02'611.6
2017-Dec-08 23:00N 49°28' E 000°06'2 4.1
2017-Dec-08 22:30N 49°28' E 000°09'0 0.0
2017-Dec-08 21:58N 49°28' E 000°09'0 0.0
2017-Dec-08 21:28N 49°28' E 000°09'0 0.0
2017-Dec-08 20:58N 49°28' E 000°09'0 0.0
2017-Dec-08 20:28N 49°28' E 000°09'0 0.0
2017-Dec-08 19:58N 49°28' E 000°09'0 0.0
2017-Dec-08 19:28N 49°28' E 000°09'0 0.0
2017-Dec-08 18:58N 49°28' E 000°09'0 0.0
2017-Dec-08 18:28N 49°28' E 000°09'0 0.0
2017-Dec-08 17:58N 49°28' E 000°09'0 0.0
2017-Dec-08 17:28N 49°28' E 000°09'0 0.0
2017-Dec-08 16:58N 49°28' E 000°09'0 0.0
2017-Dec-08 16:28N 49°28' E 000°09'0 0.0
2017-Dec-08 15:58N 49°28' E 000°09'0 0.0
2017-Dec-08 15:28N 49°28' E 000°09'0 0.0
2017-Dec-08 14:58N 49°28' E 000°09'0 0.0
2017-Dec-08 14:28N 49°28' E 000°09'0 0.0
2017-Dec-08 13:58N 49°28' E 000°09'0 0.0
2017-Dec-08 13:28N 49°28' E 000°09'0 0.0
2017-Dec-08 12:58N 49°28' E 000°09'0 0.0
2017-Dec-08 12:28N 49°28' E 000°09'0 0.0
2017-Dec-08 11:58N 49°28' E 000°09'0 0.0
2017-Dec-08 11:28N 49°28' E 000°09'0 0.0
2017-Dec-08 10:58N 49°28' E 000°09'0 0.0
2017-Dec-08 10:28N 49°28' E 000°09'0 0.0
2017-Dec-08 09:58N 49°28' E 000°09'0 0.0
2017-Dec-08 09:28N 49°28' E 000°09'0 0.0
2017-Dec-08 08:58N 49°28' E 000°09'0 0.0
2017-Dec-08 08:28N 49°28' E 000°09'0 0.0
2017-Dec-08 07:58N 49°28' E 000°09'0 0.0
2017-Dec-08 07:28N 49°28' E 000°09'0 0.0
2017-Dec-08 06:58N 49°28' E 000°09'0 0.0
2017-Dec-08 06:28N 49°28' E 000°09'0 0.0
2017-Dec-08 05:58N 49°28' E 000°09'0 0.0
2017-Dec-08 05:28N 49°28' E 000°09'0 0.0
2017-Dec-08 04:58N 49°28' E 000°09'0 0.0
2017-Dec-08 04:28N 49°28' E 000°09'0 0.0
2017-Dec-08 03:58N 49°28' E 000°09'0 0.0
2017-Dec-08 03:28N 49°28' E 000°09'0 0.0
2017-Dec-08 02:58N 49°28' E 000°09'0 0.0
2017-Dec-08 02:28N 49°28' E 000°09'0 0.0
2017-Dec-08 01:58N 49°28' E 000°09'0 0.0
2017-Dec-08 01:28N 49°28' E 000°09'0 0.0
2017-Dec-08 00:58N 49°28' E 000°09'0 0.0
2017-Dec-08 00:28N 49°28' E 000°09'0 0.0
2017-Dec-07 23:58N 49°28' E 000°09'0 0.0
2017-Dec-07 23:28N 49°28' E 000°09'0 0.0
2017-Dec-07 22:58N 49°28' E 000°09'0 0.0
2017-Dec-07 22:28N 49°28' E 000°09'0 0.0
2017-Dec-07 21:58N 49°28' E 000°09'0 0.0
2017-Dec-07 21:28N 49°28' E 000°09'0 0.0
2017-Dec-07 20:58N 49°28' E 000°09'0 0.0
2017-Dec-07 20:28N 49°28' E 000°09'0 0.0
2017-Dec-07 19:58N 49°28' E 000°09'0 0.0
2017-Dec-07 19:28N 49°28' E 000°09'0 0.0
2017-Dec-07 18:58N 49°28' E 000°09'0 0.0
2017-Dec-07 18:28N 49°28' E 000°09'0 0.0
2017-Dec-07 17:58N 49°28' E 000°09'0 0.0
2017-Dec-07 17:28N 49°28' E 000°09'0 0.0
2017-Dec-07 16:58N 49°28' E 000°09'0 0.0
2017-Dec-07 16:28N 49°28' E 000°09'0 0.0
2017-Dec-07 15:58N 49°28' E 000°09'0 0.0
2017-Dec-07 15:28N 49°28' E 000°09'0 0.0
2017-Dec-07 14:58N 49°28' E 000°09'0 0.0
2017-Dec-07 14:28N 49°28' E 000°09'0 0.0
2017-Dec-07 13:58N 49°28' E 000°09'0 0.0
2017-Dec-07 13:30N 49°28' E 000°09'0 0.9
2017-Dec-07 13:00N 49°27' E 000°09'5 9.3
2017-Dec-07 12:30N 49°30' E 000°02'815.4
2017-Dec-07 12:01N 49°32' W 000°09'510.3
2017-Dec-07 11:30N 49°37' W 000°11'5 9.9
2017-Dec-07 11:00N 49°42' W 000°09'5 9.8
2017-Dec-07 10:30N 49°47' W 000°08'5 9.9
2017-Dec-07 10:00N 49°52' W 000°08'5 9.4
2017-Dec-07 09:30N 49°56' W 000°07'510.7
2017-Dec-07 09:01N 50°02' W 000°06'611.8
2017-Dec-07 08:30N 50°07' W 000°04'612.0
2017-Dec-07 08:00N 50°13' W 000°05'611.7
2017-Dec-07 07:30N 50°19' W 000°06'611.8
2017-Dec-07 07:00N 50°25' W 000°07'5 9.5
2017-Dec-07 06:30N 50°28' W 000°01'611.4
2017-Dec-07 06:01N 50°30' E 000°07'611.6
2017-Dec-07 05:31N 50°31' E 000°16'611.4
2017-Dec-07 05:00N 50°33' E 000°25'611.5
2017-Dec-07 04:30N 50°34' E 000°34'611.3
2017-Dec-07 04:00N 50°37' E 000°41'611.6
2017-Dec-07 03:30N 50°40' E 000°49'510.7
2017-Dec-07 03:00N 50°43' E 000°56'510.2
2017-Dec-07 02:30N 50°46' E 001°02'5 9.7
2017-Dec-07 02:00N 50°49' E 001°08'5 9.4
2017-Dec-07 01:30N 50°52' E 001°14'4 7.8
2017-Dec-07 01:00N 50°55' E 001°19'4 7.9
2017-Dec-07 00:30N 50°58' E 001°23'4 8.9
2017-Dec-07 00:00N 51°01' E 001°28'510.2
2017-Dec-06 23:30N 51°05' E 001°33'510.1
2017-Dec-06 23:00N 51°09' E 001°38'510.2
2017-Dec-06 22:30N 51°13' E 001°44'510.9
2017-Dec-06 22:00N 51°17' E 001°49'611.9
2017-Dec-06 21:30N 51°22' E 001°54'510.6
2017-Dec-06 21:00N 51°25' E 002°01'  

Dump ship's entire track history